createdAt,value
2022-08-29T00:01:18.730Z,13.00
2022-08-29T00:02:55.517Z,13.00
2022-08-29T00:04:29.060Z,13.00
2022-08-29T00:06:06.592Z,13.00
2022-08-29T00:07:39.729Z,13.00
2022-08-29T00:09:13.581Z,13.00
2022-08-29T00:10:48.249Z,13.00
2022-08-29T00:12:21.482Z,13.00
2022-08-29T00:13:53.667Z,13.00
2022-08-29T00:15:27.148Z,12.90
2022-08-29T00:16:59.396Z,12.90
2022-08-29T00:18:33.694Z,12.90
2022-08-29T00:20:07.967Z,12.90
2022-08-29T00:21:41.130Z,12.90
2022-08-29T00:23:14.660Z,12.90
2022-08-29T00:24:47.797Z,12.90
2022-08-29T00:26:22.292Z,12.90
2022-08-29T00:27:55.785Z,12.80
2022-08-29T00:29:29.481Z,12.80
2022-08-29T00:31:01.958Z,12.80
2022-08-29T00:32:36.332Z,12.80
2022-08-29T00:34:09.523Z,12.80
2022-08-29T00:35:44.547Z,12.80
2022-08-29T00:37:18.176Z,12.80
2022-08-29T00:38:50.383Z,12.80
2022-08-29T00:40:28.418Z,12.70
2022-08-29T00:42:03.047Z,12.70
2022-08-29T00:43:38.096Z,12.70
2022-08-29T00:45:13.293Z,12.70
2022-08-29T00:46:50.862Z,12.70
2022-08-29T00:48:24.328Z,12.70
2022-08-29T00:49:58.614Z,12.70
2022-08-29T00:51:32.899Z,12.70
2022-08-29T00:53:09.502Z,12.70
2022-08-29T00:54:45.703Z,12.70
2022-08-29T00:56:19.677Z,12.70
2022-08-29T00:57:57.689Z,12.70
2022-08-29T00:59:35.732Z,12.60
2022-08-29T01:01:08.253Z,12.60
2022-08-29T01:02:42.877Z,12.60
2022-08-29T01:04:22.633Z,12.60
2022-08-29T01:05:57.284Z,12.60
2022-08-29T01:07:30.523Z,12.60
2022-08-29T01:09:03.976Z,12.60
2022-08-29T01:10:55.002Z,12.50
2022-08-29T01:12:28.278Z,12.60
2022-08-29T01:14:03.618Z,12.50
2022-08-29T01:15:38.208Z,12.50
2022-08-29T01:17:12.811Z,12.50
2022-08-29T01:18:48.094Z,12.50
2022-08-29T01:20:26.214Z,12.50
2022-08-29T01:22:07.712Z,12.50
2022-08-29T01:23:46.219Z,12.50
2022-08-29T01:25:24.678Z,12.40
2022-08-29T01:26:58.387Z,12.40
2022-08-29T01:28:35.883Z,12.40
2022-08-29T01:30:10.848Z,12.40
2022-08-29T01:31:57.083Z,12.30
2022-08-29T01:33:39.685Z,12.40
2022-08-29T01:35:13.361Z,12.30
2022-08-29T01:36:50.453Z,12.30
2022-08-29T01:38:28.615Z,12.20
2022-08-29T01:40:01.886Z,12.30
2022-08-29T01:41:37.487Z,12.30
2022-08-29T01:43:10.644Z,12.30
2022-08-29T01:44:48.797Z,12.30
2022-08-29T01:46:26.001Z,12.20
2022-08-29T01:48:01.857Z,12.20
2022-08-29T01:49:40.727Z,12.20
2022-08-29T01:51:15.213Z,12.20
2022-08-29T01:52:48.670Z,12.20
2022-08-29T01:54:21.174Z,12.20
2022-08-29T01:55:54.329Z,12.20
2022-08-29T01:57:28.941Z,12.20
2022-08-29T01:59:03.864Z,12.20
2022-08-29T02:00:37.490Z,12.10
2022-08-29T02:02:15.532Z,12.10
2022-08-29T02:03:48.898Z,12.10
2022-08-29T02:06:56.743Z,12.10
2022-08-29T02:08:30.174Z,12.10
2022-08-29T02:10:03.446Z,12.10
2022-08-29T02:11:36.476Z,12.10
2022-08-29T02:13:11.731Z,12.10
2022-08-29T02:14:45.644Z,12.00
2022-08-29T02:16:19.441Z,12.00
2022-08-29T02:17:52.788Z,12.00
2022-08-29T02:19:25.945Z,12.00
2022-08-29T02:20:59.110Z,12.00
2022-08-29T02:22:32.226Z,11.90
2022-08-29T02:24:24.468Z,11.90
2022-08-29T02:25:58.653Z,11.90
2022-08-29T02:27:32.367Z,11.90
2022-08-29T02:29:07.068Z,11.90
2022-08-29T02:30:40.261Z,11.90
2022-08-29T02:32:15.936Z,11.90
2022-08-29T02:33:48.899Z,11.90
2022-08-29T02:35:24.286Z,11.90
2022-08-29T02:36:59.146Z,11.90
2022-08-29T02:38:32.614Z,11.90
2022-08-29T02:40:06.747Z,11.90
2022-08-29T02:41:39.924Z,11.90
2022-08-29T02:43:19.482Z,11.90
2022-08-29T02:44:54.028Z,11.90
2022-08-29T02:46:27.723Z,11.80
2022-08-29T02:48:01.052Z,11.80
2022-08-29T02:49:34.617Z,11.90
2022-08-29T02:51:07.832Z,11.90
2022-08-29T02:52:41.615Z,11.90
2022-08-29T02:54:14.981Z,11.80
2022-08-29T02:55:49.015Z,11.80
2022-08-29T02:57:22.211Z,11.70
2022-08-29T02:58:55.352Z,11.70
2022-08-29T03:00:30.009Z,11.70
2022-08-29T03:02:03.488Z,11.80
2022-08-29T03:03:36.787Z,11.80
2022-08-29T03:05:09.804Z,11.70
2022-08-29T03:06:42.958Z,11.70
2022-08-29T03:08:16.204Z,11.70
2022-08-29T03:09:49.462Z,11.70
2022-08-29T03:11:21.785Z,11.70
2022-08-29T03:12:55.039Z,11.70
2022-08-29T03:14:28.172Z,11.70
2022-08-29T03:16:03.425Z,11.60
2022-08-29T03:17:35.630Z,11.60
2022-08-29T03:19:08.773Z,11.60
2022-08-29T03:20:45.185Z,11.60
2022-08-29T03:22:18.458Z,11.60
2022-08-29T03:23:52.395Z,11.60
2022-08-29T03:25:26.030Z,11.60
2022-08-29T03:26:59.184Z,11.60
2022-08-29T03:28:31.305Z,11.50
2022-08-29T03:30:05.924Z,11.50
2022-08-29T03:31:40.489Z,11.50
2022-08-29T03:33:13.773Z,11.50
2022-08-29T03:34:46.978Z,11.40
2022-08-29T03:36:20.172Z,11.40
2022-08-29T03:37:56.896Z,11.40
2022-08-29T03:39:30.480Z,11.40
2022-08-29T03:41:03.660Z,11.40
2022-08-29T03:42:37.012Z,11.40
2022-08-29T03:44:10.217Z,11.40
2022-08-29T03:45:43.385Z,11.40
2022-08-29T03:47:17.945Z,11.40
2022-08-29T03:48:51.136Z,11.40
2022-08-29T03:50:24.415Z,11.40
2022-08-29T03:51:57.664Z,11.30
2022-08-29T03:53:30.863Z,11.30
2022-08-29T03:55:04.404Z,11.30
2022-08-29T03:56:37.836Z,11.40
2022-08-29T03:58:11.343Z,11.30
2022-08-29T03:59:44.532Z,11.30
2022-08-29T04:01:22.605Z,11.30
2022-08-29T04:02:58.878Z,11.30
2022-08-29T04:04:49.729Z,11.30
2022-08-29T04:06:23.885Z,11.30
2022-08-29T04:07:59.528Z,11.20
2022-08-29T04:09:32.011Z,11.30
2022-08-29T04:11:10.591Z,11.30
2022-08-29T04:12:43.847Z,11.30
2022-08-29T04:14:16.999Z,11.20
2022-08-29T04:15:50.344Z,11.20
2022-08-29T04:17:23.554Z,11.20
2022-08-29T04:18:58.043Z,11.20
2022-08-29T04:20:33.425Z,11.20
2022-08-29T04:22:06.484Z,11.20
2022-08-29T04:23:41.141Z,11.20
2022-08-29T04:25:15.544Z,11.20
2022-08-29T04:26:47.800Z,11.20
2022-08-29T04:28:20.966Z,11.30
2022-08-29T04:29:53.104Z,11.30
2022-08-29T04:31:26.347Z,11.40
2022-08-29T04:32:59.609Z,11.40
2022-08-29T04:34:34.182Z,11.40
2022-08-29T04:36:11.926Z,11.40
2022-08-29T04:37:47.561Z,11.50
2022-08-29T04:39:19.729Z,11.50
2022-08-29T04:40:52.914Z,11.50
2022-08-29T04:42:26.350Z,11.50
2022-08-29T04:43:59.549Z,11.60
2022-08-29T04:45:33.364Z,11.60
2022-08-29T04:47:05.785Z,11.60
2022-08-29T04:48:38.922Z,11.70
2022-08-29T04:50:18.449Z,11.80
2022-08-29T04:51:53.958Z,11.80
2022-08-29T04:53:27.847Z,11.90
2022-08-29T04:55:01.065Z,12.00
2022-08-29T04:56:33.599Z,12.10
2022-08-29T04:58:10.086Z,12.20
2022-08-29T04:59:42.436Z,12.30
2022-08-29T05:01:17.425Z,12.50
2022-08-29T05:02:50.795Z,13.00
2022-08-29T05:04:24.008Z,13.60
2022-08-29T05:05:58.478Z,14.60
2022-08-29T05:07:31.607Z,15.60
2022-08-29T05:09:06.221Z,15.80
2022-08-29T05:10:39.622Z,16.80
2022-08-29T05:12:12.791Z,17.50
2022-08-29T05:13:45.103Z,18.30
2022-08-29T05:15:18.875Z,18.90
2022-08-29T05:16:52.146Z,19.40
2022-08-29T05:18:25.314Z,20.00
2022-08-29T05:19:58.496Z,19.60
2022-08-29T05:21:36.694Z,19.30
2022-08-29T05:23:12.626Z,18.90
2022-08-29T05:24:50.227Z,18.90
2022-08-29T05:26:23.430Z,19.00
2022-08-29T05:27:56.560Z,19.10
2022-08-29T05:29:29.792Z,18.70
2022-08-29T05:31:03.242Z,18.30
2022-08-29T05:32:36.475Z,18.10
2022-08-29T05:34:32.226Z,18.00
2022-08-29T05:36:04.238Z,17.90
2022-08-29T05:37:39.090Z,17.00
2022-08-29T05:39:12.258Z,17.10
2022-08-29T05:40:48.218Z,17.00
2022-08-29T05:42:22.209Z,18.40
2022-08-29T05:43:55.390Z,19.40
2022-08-29T05:45:28.734Z,19.50
2022-08-29T05:47:03.344Z,20.60
2022-08-29T05:48:36.762Z,21.10
2022-08-29T05:50:13.683Z,21.10
2022-08-29T05:51:45.849Z,22.60
2022-08-29T05:53:20.342Z,23.30
2022-08-29T05:54:53.781Z,23.40
2022-08-29T05:56:27.141Z,24.00
2022-08-29T05:58:00.790Z,24.90
2022-08-29T05:59:33.974Z,25.60
2022-08-29T06:01:07.255Z,25.70
2022-08-29T06:02:40.832Z,25.40
2022-08-29T06:04:14.561Z,26.20
2022-08-29T06:05:52.395Z,26.30
2022-08-29T06:07:25.736Z,26.10
2022-08-29T06:09:01.009Z,25.60
2022-08-29T06:10:34.225Z,26.50
2022-08-29T06:12:08.244Z,26.40
2022-08-29T06:13:41.383Z,26.10
2022-08-29T06:15:14.561Z,26.90
2022-08-29T06:16:47.777Z,27.40
2022-08-29T06:18:31.632Z,27.40
2022-08-29T06:20:10.975Z,27.90
2022-08-29T06:21:44.199Z,28.00
2022-08-29T06:23:17.323Z,27.80
2022-08-29T06:24:54.958Z,27.40
2022-08-29T06:26:31.486Z,27.60
2022-08-29T06:28:05.184Z,27.40
2022-08-29T06:29:43.278Z,25.70
2022-08-29T06:31:20.594Z,24.00
2022-08-29T06:32:53.855Z,23.90
2022-08-29T06:34:27.051Z,24.90
2022-08-29T06:36:00.205Z,23.70
2022-08-29T06:37:33.529Z,22.90
2022-08-29T06:39:08.905Z,23.30
2022-08-29T06:40:43.500Z,24.00
2022-08-29T06:42:18.798Z,23.50
2022-08-29T06:43:57.269Z,22.40
2022-08-29T06:45:30.414Z,22.30
2022-08-29T06:47:02.976Z,22.30
2022-08-29T06:48:36.584Z,22.50
2022-08-29T06:50:10.433Z,22.70
2022-08-29T06:51:49.032Z,22.70
2022-08-29T06:53:29.823Z,22.40
2022-08-29T06:55:11.563Z,21.80
2022-08-29T06:56:47.383Z,22.00
2022-08-29T06:58:20.567Z,22.10
2022-08-29T06:59:53.772Z,22.80
2022-08-29T07:01:27.426Z,24.90
2022-08-29T07:03:00.717Z,25.30
2022-08-29T07:04:33.938Z,24.70
2022-08-29T07:06:09.039Z,25.70
2022-08-29T07:07:42.358Z,25.80
2022-08-29T07:09:15.743Z,25.20
2022-08-29T07:10:48.881Z,23.60
2022-08-29T07:12:23.894Z,25.10
2022-08-29T07:14:05.288Z,26.20
2022-08-29T07:15:38.581Z,26.00
2022-08-29T07:17:11.756Z,25.80
2022-08-29T07:18:59.216Z,24.70
2022-08-29T07:20:32.397Z,23.80
2022-08-29T07:22:05.590Z,21.90
2022-08-29T07:23:37.844Z,22.70
2022-08-29T07:25:11.450Z,22.40
2022-08-29T07:26:45.544Z,24.10
2022-08-29T07:28:20.045Z,23.50
2022-08-29T07:29:53.273Z,23.60
2022-08-29T07:31:31.114Z,22.20
2022-08-29T07:33:04.711Z,22.60
2022-08-29T07:34:37.982Z,21.00
2022-08-29T07:36:11.615Z,20.90
2022-08-29T07:37:47.779Z,21.20
2022-08-29T07:39:24.147Z,22.10
2022-08-29T07:41:00.934Z,22.70
2022-08-29T07:42:34.671Z,23.90
2022-08-29T07:44:10.217Z,24.20
2022-08-29T07:45:43.377Z,22.80
2022-08-29T07:47:17.983Z,21.40
2022-08-29T07:48:51.165Z,20.60
2022-08-29T07:50:24.295Z,20.80
2022-08-29T07:51:57.508Z,21.00
2022-08-29T07:53:30.704Z,20.50
2022-08-29T07:55:05.491Z,20.00
2022-08-29T07:56:43.959Z,19.80
2022-08-29T07:58:17.130Z,20.00
2022-08-29T07:59:51.641Z,19.70
2022-08-29T08:01:25.184Z,19.80
2022-08-29T08:02:58.747Z,20.20
2022-08-29T08:04:31.963Z,19.90
2022-08-29T08:06:07.270Z,19.90
2022-08-29T08:07:41.294Z,20.00
2022-08-29T08:09:15.393Z,20.30
2022-08-29T08:10:52.049Z,20.00
2022-08-29T08:12:26.382Z,20.40
2022-08-29T08:13:59.671Z,21.10
2022-08-29T08:15:34.179Z,20.70
2022-08-29T08:17:07.444Z,20.50
2022-08-29T08:18:42.020Z,21.10
2022-08-29T08:20:15.714Z,21.20
2022-08-29T08:21:49.757Z,21.20
2022-08-29T08:23:23.365Z,21.10
2022-08-29T08:24:56.502Z,20.70
2022-08-29T08:26:29.745Z,20.90
2022-08-29T08:28:03.213Z,21.10
2022-08-29T08:29:36.410Z,20.60
2022-08-29T08:31:14.237Z,20.80
2022-08-29T08:32:52.740Z,21.10
2022-08-29T08:34:29.354Z,21.80
2022-08-29T08:36:02.983Z,22.30
2022-08-29T08:37:36.583Z,22.10
2022-08-29T08:39:10.857Z,22.30
2022-08-29T08:40:50.062Z,22.50
2022-08-29T08:42:32.872Z,22.30
2022-08-29T08:44:10.817Z,23.20
2022-08-29T08:45:45.116Z,23.30
2022-08-29T08:47:26.639Z,22.90
2022-08-29T08:49:03.472Z,23.60
2022-08-29T08:50:44.536Z,23.40
2022-08-29T08:52:22.199Z,24.50
2022-08-29T08:53:59.340Z,25.20
2022-08-29T08:55:42.196Z,24.50
2022-08-29T08:57:15.838Z,23.30
2022-08-29T08:58:55.001Z,23.40
2022-08-29T09:00:31.641Z,23.00
2022-08-29T09:02:14.726Z,22.20
2022-08-29T09:04:05.882Z,22.60
2022-08-29T09:05:51.178Z,23.30
2022-08-29T09:07:48.584Z,23.50
2022-08-29T09:09:31.150Z,23.60
2022-08-29T09:11:15.688Z,24.10
2022-08-29T09:12:59.823Z,23.30
2022-08-29T09:14:46.235Z,24.50
2022-08-29T09:16:26.314Z,24.50
2022-08-29T09:18:03.301Z,25.30
2022-08-29T09:19:38.299Z,25.40
2022-08-29T09:21:39.591Z,23.90
2022-08-29T09:23:18.489Z,23.10
2022-08-29T09:24:57.632Z,22.70
2022-08-29T09:26:30.829Z,22.70
2022-08-29T09:28:07.850Z,22.90
2022-08-29T09:29:40.993Z,22.70
2022-08-29T09:31:25.719Z,23.60
2022-08-29T09:33:02.647Z,23.70
2022-08-29T09:35:06.886Z,23.20
2022-08-29T09:36:42.760Z,22.40
2022-08-29T09:38:23.788Z,22.30
2022-08-29T09:40:01.407Z,21.90
2022-08-29T09:41:34.654Z,22.70
2022-08-29T09:43:08.485Z,23.60
2022-08-29T09:44:52.169Z,24.80
2022-08-29T09:46:26.040Z,25.20
2022-08-29T09:48:11.269Z,24.80
2022-08-29T09:50:04.685Z,25.70
2022-08-29T09:51:40.116Z,26.20
2022-08-29T09:53:24.250Z,25.70
2022-08-29T09:54:58.910Z,25.20
2022-08-29T09:56:32.256Z,23.40
2022-08-29T09:58:07.806Z,24.10
2022-08-29T09:59:43.657Z,24.90
2022-08-29T10:01:24.848Z,24.40
2022-08-29T10:03:03.579Z,23.50
2022-08-29T10:04:42.684Z,23.60
2022-08-29T10:06:21.824Z,24.10
2022-08-29T10:07:57.952Z,24.00
2022-08-29T10:09:31.159Z,24.20
2022-08-29T10:11:08.967Z,24.20
2022-08-29T10:12:50.889Z,24.10
2022-08-29T10:14:31.910Z,23.90
2022-08-29T10:16:16.565Z,25.20
2022-08-29T10:18:14.657Z,26.60
2022-08-29T10:19:47.958Z,25.60
2022-08-29T10:21:33.188Z,24.40
2022-08-29T10:23:15.004Z,24.60
2022-08-29T10:24:58.494Z,24.00
2022-08-29T10:26:40.637Z,24.60
2022-08-29T10:28:21.604Z,25.50
2022-08-29T10:30:06.444Z,25.50
2022-08-29T10:31:47.391Z,24.50
2022-08-29T10:33:33.538Z,24.80
2022-08-29T10:35:15.654Z,24.00
2022-08-29T10:36:58.047Z,24.10
2022-08-29T10:38:47.221Z,24.50
2022-08-29T10:40:28.236Z,23.90
2022-08-29T10:42:09.694Z,23.60
2022-08-29T10:43:52.343Z,23.80
2022-08-29T10:45:36.195Z,22.90
2022-08-29T10:47:27.292Z,23.30
2022-08-29T10:49:06.694Z,23.20
2022-08-29T10:50:49.102Z,23.90
2022-08-29T10:52:31.624Z,24.30
2022-08-29T10:54:13.213Z,24.70
2022-08-29T10:55:53.473Z,24.00
2022-08-29T10:57:45.532Z,24.80
2022-08-29T10:59:27.629Z,23.90
2022-08-29T11:01:08.988Z,24.10
2022-08-29T11:02:49.298Z,23.90
2022-08-29T11:04:28.148Z,25.00
2022-08-29T11:06:04.344Z,24.80
2022-08-29T11:07:46.982Z,25.10
2022-08-29T11:09:24.272Z,23.70
2022-08-29T11:10:57.479Z,23.10
2022-08-29T11:12:41.423Z,24.10
2022-08-29T11:14:22.992Z,25.30
2022-08-29T11:16:04.698Z,24.20
2022-08-29T11:17:42.992Z,24.50
2022-08-29T11:19:23.764Z,24.50
2022-08-29T11:21:01.488Z,24.00
2022-08-29T11:22:41.489Z,24.10
2022-08-29T11:24:17.985Z,25.10
2022-08-29T11:25:51.658Z,25.10
2022-08-29T11:27:32.551Z,25.40
2022-08-29T11:29:17.067Z,24.50
2022-08-29T11:30:58.320Z,25.50
2022-08-29T11:32:44.894Z,26.60
2022-08-29T11:34:29.252Z,26.50
2022-08-29T11:36:40.332Z,26.30
2022-08-29T11:38:51.940Z,27.20
2022-08-29T11:42:51.856Z,27.50
2022-08-29T11:44:29.946Z,27.20
2022-08-29T11:46:07.422Z,25.60
2022-08-29T11:47:58.426Z,24.50
2022-08-29T11:49:44.753Z,25.40
2022-08-29T11:51:37.461Z,25.30
2022-08-29T11:53:33.604Z,25.30
2022-08-29T11:55:34.106Z,26.10
2022-08-29T11:57:48.157Z,27.20
2022-08-29T11:59:54.749Z,27.50
2022-08-29T12:02:01.827Z,27.40
2022-08-29T12:03:56.064Z,28.00
2022-08-29T12:05:59.433Z,25.00
2022-08-29T12:07:38.674Z,24.90
2022-08-29T12:09:41.314Z,25.80
2022-08-29T12:11:15.818Z,26.50
2022-08-29T12:12:51.230Z,27.50
2022-08-29T12:14:37.497Z,28.20
2022-08-29T12:16:12.374Z,28.40
2022-08-29T12:18:01.470Z,28.60
2022-08-29T12:19:54.159Z,26.30
2022-08-29T12:21:48.791Z,25.00
2022-08-29T12:23:27.592Z,26.20
2022-08-29T12:25:20.782Z,26.60
2022-08-29T12:26:55.784Z,26.60
2022-08-29T12:28:52.067Z,26.70
2022-08-29T12:30:25.522Z,26.60
2022-08-29T12:32:28.548Z,25.70
2022-08-29T12:34:24.974Z,25.00
2022-08-29T12:36:21.217Z,24.70
2022-08-29T12:38:11.786Z,24.90
2022-08-29T12:40:00.824Z,24.90
2022-08-29T12:41:42.606Z,25.60
2022-08-29T12:43:37.179Z,25.40
2022-08-29T12:45:17.575Z,25.70
2022-08-29T12:46:56.016Z,25.70
2022-08-29T12:48:37.894Z,25.00
2022-08-29T12:50:19.297Z,25.00
2022-08-29T12:51:57.346Z,24.20
2022-08-29T12:53:33.389Z,23.60
2022-08-29T12:55:22.860Z,23.70
2022-08-29T12:57:03.666Z,24.00
2022-08-29T12:58:42.434Z,24.80
2022-08-29T13:00:22.304Z,24.80
2022-08-29T13:01:58.037Z,24.80
2022-08-29T13:03:31.226Z,25.30
2022-08-29T13:05:19.093Z,25.60
2022-08-29T13:06:54.845Z,25.20
2022-08-29T13:08:30.581Z,25.10
2022-08-29T13:10:03.777Z,25.30
2022-08-29T13:11:36.937Z,25.00
2022-08-29T13:13:14.105Z,25.30
2022-08-29T13:14:51.999Z,25.60
2022-08-29T13:16:29.143Z,25.60
2022-08-29T13:18:02.995Z,24.90
2022-08-29T13:19:36.167Z,24.90
2022-08-29T13:21:14.510Z,25.60
2022-08-29T13:22:46.742Z,25.40
2022-08-29T13:24:21.390Z,25.50
2022-08-29T13:25:58.330Z,25.40
2022-08-29T13:27:31.583Z,24.80
2022-08-29T13:29:23.646Z,24.10
2022-08-29T13:31:10.698Z,23.80
2022-08-29T13:32:50.074Z,24.00
2022-08-29T13:34:23.425Z,23.80
2022-08-29T13:35:56.605Z,23.70
2022-08-29T13:37:32.087Z,23.90
2022-08-29T13:39:26.543Z,23.70
2022-08-29T13:41:00.060Z,24.20
2022-08-29T13:42:34.006Z,24.30
2022-08-29T13:44:07.826Z,24.30
2022-08-29T13:45:41.022Z,24.10
2022-08-29T13:47:17.471Z,24.60
2022-08-29T13:48:59.712Z,25.00
2022-08-29T13:50:32.931Z,24.60
2022-08-29T13:52:06.631Z,23.70
2022-08-29T13:53:40.153Z,23.30
2022-08-29T13:55:18.093Z,23.30
2022-08-29T13:56:54.400Z,23.40
2022-08-29T13:58:28.790Z,23.50
2022-08-29T14:00:02.172Z,22.70
2022-08-29T14:03:34.038Z,22.40
2022-08-29T14:05:07.233Z,22.80
2022-08-29T14:06:40.644Z,22.60
2022-08-29T14:08:14.708Z,22.90
2022-08-29T14:09:48.652Z,22.70
2022-08-29T14:11:22.366Z,22.80
2022-08-29T14:12:55.562Z,22.80
2022-08-29T14:14:27.734Z,22.60
2022-08-29T14:16:00.967Z,22.70
2022-08-29T14:17:34.407Z,22.50
2022-08-29T14:19:08.950Z,22.70
2022-08-29T14:20:42.107Z,23.00
2022-08-29T14:22:14.555Z,23.20
2022-08-29T14:23:48.562Z,23.30
2022-08-29T14:25:23.241Z,23.70
2022-08-29T14:26:59.522Z,23.90
2022-08-29T14:28:39.790Z,24.40
2022-08-29T14:30:17.255Z,23.90
2022-08-29T14:31:50.833Z,23.60
2022-08-29T14:33:24.060Z,23.20
2022-08-29T14:34:58.566Z,23.00
2022-08-29T14:36:32.066Z,23.20
2022-08-29T14:38:13.235Z,23.20
2022-08-29T14:39:48.472Z,23.90
2022-08-29T14:41:23.625Z,24.60
2022-08-29T14:42:56.794Z,24.60
2022-08-29T14:44:29.959Z,23.60
2022-08-29T14:46:03.127Z,23.50
2022-08-29T14:47:36.416Z,23.40
2022-08-29T14:49:09.546Z,23.40
2022-08-29T14:50:44.104Z,23.60
2022-08-29T14:52:17.278Z,23.80
2022-08-29T14:53:54.665Z,23.00
2022-08-29T14:55:28.163Z,23.00
2022-08-29T14:57:01.445Z,22.90
2022-08-29T14:58:34.633Z,23.10
2022-08-29T15:00:12.091Z,23.50
2022-08-29T15:01:48.669Z,23.20
2022-08-29T15:03:26.016Z,23.10
2022-08-29T15:04:59.194Z,23.40
2022-08-29T15:06:33.710Z,23.10
2022-08-29T15:08:07.142Z,23.10
2022-08-29T15:09:43.801Z,23.20
2022-08-29T15:11:16.928Z,22.60
2022-08-29T15:12:50.921Z,22.50
2022-08-29T15:14:24.603Z,22.60
2022-08-29T15:15:57.748Z,22.60
2022-08-29T15:17:31.110Z,22.60
2022-08-29T15:20:57.453Z,22.60
2022-08-29T15:22:32.086Z,22.60
2022-08-29T15:24:06.167Z,22.40
2022-08-29T15:25:39.313Z,22.90
2022-08-29T15:27:18.610Z,23.10
2022-08-29T15:28:51.765Z,23.20
2022-08-29T15:30:26.813Z,23.40
2022-08-29T15:32:00.218Z,23.10
2022-08-29T15:33:32.379Z,23.00
2022-08-29T15:35:06.053Z,22.50
2022-08-29T15:36:41.599Z,22.70
2022-08-29T15:38:16.286Z,22.50
2022-08-29T15:39:54.429Z,22.50
2022-08-29T15:41:29.877Z,22.70
2022-08-29T15:43:03.085Z,22.70
2022-08-29T15:44:36.513Z,22.70
2022-08-29T15:46:09.793Z,22.40
2022-08-29T15:47:46.255Z,22.40
2022-08-29T15:49:20.509Z,22.60
2022-08-29T15:50:54.304Z,22.90
2022-08-29T15:52:30.927Z,22.90
2022-08-29T15:54:06.621Z,22.90
2022-08-29T15:55:44.215Z,22.80
2022-08-29T15:57:17.656Z,22.80
2022-08-29T15:58:52.365Z,22.60
2022-08-29T16:00:30.788Z,22.20
2022-08-29T16:02:05.328Z,22.10
2022-08-29T16:03:38.496Z,22.20
2022-08-29T16:05:11.685Z,22.30
2022-08-29T16:06:45.071Z,22.20
2022-08-29T16:08:18.719Z,22.20
2022-08-29T16:09:53.476Z,22.30
2022-08-29T16:11:26.806Z,22.40
2022-08-29T16:13:00.422Z,22.60
2022-08-29T16:16:27.130Z,22.50
2022-08-29T16:18:00.692Z,22.60
2022-08-29T16:19:37.392Z,22.50
2022-08-29T16:21:12.609Z,22.60
2022-08-29T16:22:45.953Z,22.50
2022-08-29T16:24:21.653Z,22.40
2022-08-29T16:25:56.238Z,22.40
2022-08-29T16:27:29.390Z,22.30
2022-08-29T16:29:02.790Z,22.40
2022-08-29T16:30:44.258Z,22.50
2022-08-29T16:32:20.124Z,22.60
2022-08-29T16:33:53.282Z,22.60
2022-08-29T16:35:26.773Z,22.60
2022-08-29T16:37:01.933Z,22.70
2022-08-29T16:38:35.988Z,22.50
2022-08-29T16:40:10.242Z,22.10
2022-08-29T16:41:45.949Z,21.90
2022-08-29T16:43:19.218Z,21.80
2022-08-29T16:44:53.362Z,21.80
2022-08-29T16:46:31.065Z,21.80
2022-08-29T16:48:04.902Z,21.80
2022-08-29T16:49:50.279Z,21.90
2022-08-29T16:51:26.064Z,21.90
2022-08-29T16:52:59.222Z,21.90
2022-08-29T16:54:32.430Z,21.80
2022-08-29T16:56:06.425Z,21.80
2022-08-29T16:57:40.997Z,21.70
2022-08-29T16:59:13.587Z,21.70
2022-08-29T17:00:46.754Z,21.70
2022-08-29T17:02:19.979Z,21.60
2022-08-29T17:03:53.237Z,21.50
2022-08-29T17:05:26.997Z,21.40
2022-08-29T17:07:01.180Z,21.40
2022-08-29T17:08:33.259Z,21.30
2022-08-29T17:10:06.070Z,21.20
2022-08-29T17:11:38.920Z,21.30
2022-08-29T17:13:12.326Z,21.20
2022-08-29T17:14:44.334Z,21.10
2022-08-29T17:16:17.355Z,21.00
2022-08-29T17:17:50.549Z,21.00
2022-08-29T17:19:24.742Z,21.00
2022-08-29T17:20:59.825Z,21.00
2022-08-29T17:22:33.238Z,21.00
2022-08-29T17:24:07.798Z,20.90
2022-08-29T17:25:41.184Z,20.90
2022-08-29T17:27:19.384Z,20.80
2022-08-29T17:28:55.989Z,20.70
2022-08-29T17:30:30.567Z,20.60
2022-08-29T17:32:06.104Z,20.60
2022-08-29T17:33:39.271Z,20.50
2022-08-29T17:35:12.439Z,20.50
2022-08-29T17:36:45.822Z,20.40
2022-08-29T17:38:19.576Z,20.20
2022-08-29T17:39:52.751Z,20.10
2022-08-29T17:41:26.255Z,20.10
2022-08-29T17:43:00.674Z,20.20
2022-08-29T17:44:35.833Z,20.10
2022-08-29T17:46:09.075Z,20.10
2022-08-29T17:47:42.257Z,20.00
2022-08-29T17:49:15.420Z,19.90
2022-08-29T17:50:49.818Z,19.90
2022-08-29T17:52:22.979Z,19.70
2022-08-29T17:53:56.450Z,19.60
2022-08-29T17:55:30.219Z,19.50
2022-08-29T17:57:04.441Z,19.40
2022-08-29T17:58:37.616Z,19.30
2022-08-29T18:00:13.337Z,19.20
2022-08-29T18:01:46.907Z,19.00
2022-08-29T18:03:20.524Z,18.90
2022-08-29T18:04:54.119Z,18.80
2022-08-29T18:06:32.053Z,18.60
2022-08-29T18:08:06.181Z,18.60
2022-08-29T18:09:39.449Z,18.50
2022-08-29T18:11:13.409Z,18.30
2022-08-29T18:12:47.238Z,18.20
2022-08-29T18:14:23.648Z,18.10
2022-08-29T18:15:58.144Z,18.00
2022-08-29T18:17:32.170Z,17.90
2022-08-29T18:19:05.672Z,17.90
2022-08-29T18:20:41.087Z,17.80
2022-08-29T18:22:14.292Z,17.70
2022-08-29T18:23:47.725Z,17.60
2022-08-29T18:25:22.512Z,17.50
2022-08-29T18:26:56.015Z,17.50
2022-08-29T18:28:29.448Z,17.40
2022-08-29T18:30:03.047Z,17.30
2022-08-29T18:31:37.744Z,17.30
2022-08-29T18:33:12.890Z,17.20
2022-08-29T18:34:46.011Z,17.20
2022-08-29T18:36:19.879Z,17.10
2022-08-29T18:37:53.031Z,17.10
2022-08-29T18:39:26.206Z,17.00
2022-08-29T18:40:59.410Z,16.90
2022-08-29T18:42:40.573Z,16.90
2022-08-29T18:44:14.551Z,16.80
2022-08-29T18:45:47.751Z,16.80
2022-08-29T18:47:22.432Z,16.70
2022-08-29T18:48:55.614Z,16.70
2022-08-29T18:50:34.094Z,16.60
2022-08-29T18:52:07.352Z,16.60
2022-08-29T18:53:40.575Z,16.60
2022-08-29T18:55:16.029Z,16.60
2022-08-29T18:56:49.763Z,16.60
2022-08-29T18:58:25.364Z,16.60
2022-08-29T18:59:57.557Z,16.50
2022-08-29T19:01:32.282Z,16.40
2022-08-29T19:03:07.465Z,16.40
2022-08-29T19:04:41.221Z,16.40
2022-08-29T19:06:14.833Z,16.40
2022-08-29T19:07:48.530Z,16.30
2022-08-29T19:09:21.782Z,16.30
2022-08-29T19:10:56.111Z,16.30
2022-08-29T19:12:30.329Z,16.20
2022-08-29T19:14:03.518Z,16.20
2022-08-29T19:15:41.458Z,16.20
2022-08-29T19:17:14.799Z,16.20
2022-08-29T19:18:49.658Z,16.10
2022-08-29T19:20:43.857Z,16.10
2022-08-29T19:22:17.029Z,16.00
2022-08-29T19:23:52.165Z,16.00
2022-08-29T19:25:26.529Z,16.00
2022-08-29T19:26:59.666Z,15.90
2022-08-29T19:28:33.087Z,15.90
2022-08-29T19:30:09.067Z,15.80
2022-08-29T19:31:44.821Z,15.80
2022-08-29T19:33:18.439Z,15.80
2022-08-29T19:34:53.485Z,15.70
2022-08-29T19:36:26.820Z,15.70
2022-08-29T19:38:00.041Z,15.70
2022-08-29T19:39:33.615Z,15.60
2022-08-29T19:41:07.221Z,15.70
2022-08-29T19:42:41.943Z,15.70
2022-08-29T19:44:15.151Z,15.60
2022-08-29T19:45:48.321Z,15.60
2022-08-29T19:47:24.855Z,15.50
2022-08-29T19:48:58.059Z,15.40
2022-08-29T19:50:32.598Z,15.40
2022-08-29T19:52:05.826Z,15.30
2022-08-29T19:53:41.425Z,15.30
2022-08-29T19:55:17.738Z,15.20
2022-08-29T19:56:50.870Z,15.20
2022-08-29T19:58:31.262Z,15.20
2022-08-29T20:00:13.490Z,15.10
2022-08-29T20:01:47.089Z,15.10
2022-08-29T20:03:20.359Z,15.10
2022-08-29T20:04:53.566Z,15.00
2022-08-29T20:06:28.160Z,15.00
2022-08-29T20:08:01.342Z,15.00
2022-08-29T20:09:34.546Z,15.00
2022-08-29T20:11:07.835Z,14.90
2022-08-29T20:12:41.749Z,15.00
2022-08-29T20:14:14.943Z,14.90
2022-08-29T20:15:49.897Z,14.90
2022-08-29T20:17:23.072Z,14.90
2022-08-29T20:18:56.289Z,14.90
2022-08-29T20:20:34.465Z,14.90
2022-08-29T20:22:09.070Z,14.90
2022-08-29T20:23:49.401Z,14.90
2022-08-29T20:25:25.668Z,14.90
2022-08-29T20:27:00.102Z,14.90
2022-08-29T20:28:33.362Z,14.90
2022-08-29T20:30:09.011Z,14.80
2022-08-29T20:31:42.723Z,14.80
2022-08-29T20:33:16.037Z,14.80
2022-08-29T20:34:49.362Z,14.70
2022-08-29T20:36:42.058Z,14.70
2022-08-29T20:38:15.843Z,14.60
2022-08-29T20:39:49.244Z,14.60
2022-08-29T20:41:22.697Z,14.60
2022-08-29T20:42:57.482Z,14.60
2022-08-29T20:44:34.309Z,14.50
2022-08-29T20:46:08.638Z,14.50
2022-08-29T20:47:41.850Z,14.50
2022-08-29T20:49:17.883Z,14.50
2022-08-29T20:50:59.318Z,14.40
2022-08-29T20:52:32.469Z,14.40